sensor_id;sensor_type;location;lat;lon;timestamp;P1;P2;P0
71858;PMS5003;59713;50.866;4.324;2024-01-25T00:00:11;35;24;
71858;PMS5003;59713;50.866;4.324;2024-01-25T00:01:10;15;8;
71858;PMS5003;59713;50.866;4.324;2024-01-25T00:02:10;15;8;
71858;PMS5003;59713;50.866;4.324;2024-01-25T00:03:10;15;8;
71858;PMS5003;59713;50.866;4.324;2024-01-25T00:04:10;13;8;
71858;PMS5003;59713;50.866;4.324;2024-01-25T00:05:10;13;8;
71858;PMS5003;59713;50.866;4.324;2024-01-25T00:06:10;13;8;
71858;PMS5003;59713;50.866;4.324;2024-01-25T00:07:10;10;5;
71858;PMS5003;59713;50.866;4.324;2024-01-25T00:07:10;10;5;
71858;PMS5003;59713;50.866;4.324;2024-01-25T00:08:10;10;5;
71858;PMS5003;59713;50.866;4.324;2024-01-25T00:09:10;10;5;
71858;PMS5003;59713;50.866;4.324;2024-01-25T00:10:10;13;8;
71858;PMS5003;59713;50.866;4.324;2024-01-25T00:11:10;13;8;
71858;PMS5003;59713;50.866;4.324;2024-01-25T00:12:10;13;8;
71858;PMS5003;59713;50.866;4.324;2024-01-25T00:13:10;14;5;
71858;PMS5003;59713;50.866;4.324;2024-01-25T00:14:10;14;5;
71858;PMS5003;59713;50.866;4.324;2024-01-25T00:15:10;14;5;
71858;PMS5003;59713;50.866;4.324;2024-01-25T00:16:10;16;8;
71858;PMS5003;59713;50.866;4.324;2024-01-25T00:16:10;16;8;
71858;PMS5003;59713;50.866;4.324;2024-01-25T00:17:10;16;8;
71858;PMS5003;59713;50.866;4.324;2024-01-25T00:18:10;16;8;
71858;PMS5003;59713;50.866;4.324;2024-01-25T00:19:10;12;9;
71858;PMS5003;59713;50.866;4.324;2024-01-25T00:20:10;12;9;
71858;PMS5003;59713;50.866;4.324;2024-01-25T00:21:10;12;9;
71858;PMS5003;59713;50.866;4.324;2024-01-25T00:22:10;10;5;
71858;PMS5003;59713;50.866;4.324;2024-01-25T00:23:10;10;5;
71858;PMS5003;59713;50.866;4.324;2024-01-25T00:24:11;10;5;
71858;PMS5003;59713;50.866;4.324;2024-01-25T00:25:10;17;8;
71858;PMS5003;59713;50.866;4.324;2024-01-25T00:25:10;17;8;
71858;PMS5003;59713;50.866;4.324;2024-01-25T00:26:10;17;8;
71858;PMS5003;59713;50.866;4.324;2024-01-25T00:27:10;17;8;
71858;PMS5003;59713;50.866;4.324;2024-01-25T00:28:10;13;8;
71858;PMS5003;59713;50.866;4.324;2024-01-25T00:29:10;13;8;
71858;PMS5003;59713;50.866;4.324;2024-01-25T00:30:11;13;8;
71858;PMS5003;59713;50.866;4.324;2024-01-25T00:31:10;18;8;
71858;PMS5003;59713;50.866;4.324;2024-01-25T00:32:10;18;8;
71858;PMS5003;59713;50.866;4.324;2024-01-25T00:33:10;18;8;
71858;PMS5003;59713;50.866;4.324;2024-01-25T00:34:10;20;7;
71858;PMS5003;59713;50.866;4.324;2024-01-25T00:34:10;20;7;
71858;PMS5003;59713;50.866;4.324;2024-01-25T00:35:11;20;7;
71858;PMS5003;59713;50.866;4.324;2024-01-25T00:36:11;20;7;
71858;PMS5003;59713;50.866;4.324;2024-01-25T00:37:10;19;8;
71858;PMS5003;59713;50.866;4.324;2024-01-25T00:38:10;19;8;
71858;PMS5003;59713;50.866;4.324;2024-01-25T00:39:10;19;8;
71858;PMS5003;59713;50.866;4.324;2024-01-25T00:40:11;9;6;
71858;PMS5003;59713;50.866;4.324;2024-01-25T00:41:11;9;6;
71858;PMS5003;59713;50.866;4.324;2024-01-25T00:42:11;9;6;
71858;PMS5003;59713;50.866;4.324;2024-01-25T00:43:10;13;9;
71858;PMS5003;59713;50.866;4.324;2024-01-25T00:43:10;13;9;
71858;PMS5003;59713;50.866;4.324;2024-01-25T00:44:10;13;9;
71858;PMS5003;59713;50.866;4.324;2024-01-25T00:45:11;13;9;
71858;PMS5003;59713;50.866;4.324;2024-01-25T00:46:11;10;6;
71858;PMS5003;59713;50.866;4.324;2024-01-25T00:47:10;10;6;
71858;PMS5003;59713;50.866;4.324;2024-01-25T00:48:11;10;6;
71858;PMS5003;59713;50.866;4.324;2024-01-25T00:49:10;13;6;
71858;PMS5003;59713;50.866;4.324;2024-01-25T00:50:11;13;6;
71858;PMS5003;59713;50.866;4.324;2024-01-25T00:51:12;13;6;
71858;PMS5003;59713;50.866;4.324;2024-01-25T00:52:11;22;9;
71858;PMS5003;59713;50.866;4.324;2024-01-25T00:52:11;22;9;
71858;PMS5003;59713;50.866;4.324;2024-01-25T00:53:10;22;9;
71858;PMS5003;59713;50.866;4.324;2024-01-25T00:54:11;22;9;
71858;PMS5003;59713;50.866;4.324;2024-01-25T00:55:11;13;8;
71858;PMS5003;59713;50.866;4.324;2024-01-25T00:56:11;13;8;
71858;PMS5003;59713;50.866;4.324;2024-01-25T00:57:11;13;8;
71858;PMS5003;59713;50.866;4.324;2024-01-25T00:58:10;15;9;
71858;PMS5003;59713;50.866;4.324;2024-01-25T00:59:10;15;9;
71858;PMS5003;59713;50.866;4.324;2024-01-25T01:00:11;15;9;
71858;PMS5003;59713;50.866;4.324;2024-01-25T01:01:11;13;5;
71858;PMS5003;59713;50.866;4.324;2024-01-25T01:01:11;13;5;
71858;PMS5003;59713;50.866;4.324;2024-01-25T01:02:11;13;5;
71858;PMS5003;59713;50.866;4.324;2024-01-25T01:03:10;13;5;
71858;PMS5003;59713;50.866;4.324;2024-01-25T01:04:11;13;5;
71858;PMS5003;59713;50.866;4.324;2024-01-25T01:05:11;13;5;
71858;PMS5003;59713;50.866;4.324;2024-01-25T01:06:11;13;5;
71858;PMS5003;59713;50.866;4.324;2024-01-25T01:07:11;13;9;
71858;PMS5003;59713;50.866;4.324;2024-01-25T01:08:11;13;9;
71858;PMS5003;59713;50.866;4.324;2024-01-25T01:09:10;13;9;
71858;PMS5003;59713;50.866;4.324;2024-01-25T01:10:10;17;7;
71858;PMS5003;59713;50.866;4.324;2024-01-25T01:10:10;17;7;
71858;PMS5003;59713;50.866;4.324;2024-01-25T01:11:10;17;7;
71858;PMS5003;59713;50.866;4.324;2024-01-25T01:12:10;17;7;
71858;PMS5003;59713;50.866;4.324;2024-01-25T01:13:10;18;9;
71858;PMS5003;59713;50.866;4.324;2024-01-25T01:14:10;18;9;
71858;PMS5003;59713;50.866;4.324;2024-01-25T01:15:10;18;9;
71858;PMS5003;59713;50.866;4.324;2024-01-25T01:16:10;17;8;
71858;PMS5003;59713;50.866;4.324;2024-01-25T01:17:10;17;8;
71858;PMS5003;59713;50.866;4.324;2024-01-25T01:18:10;17;8;
71858;PMS5003;59713;50.866;4.324;2024-01-25T01:19:10;17;9;
71858;PMS5003;59713;50.866;4.324;2024-01-25T01:19:10;17;9;
71858;PMS5003;59713;50.866;4.324;2024-01-25T01:20:10;17;9;
71858;PMS5003;59713;50.866;4.324;2024-01-25T01:21:10;17;9;
71858;PMS5003;59713;50.866;4.324;2024-01-25T01:22:10;20;11;
71858;PMS5003;59713;50.866;4.324;2024-01-25T01:23:10;20;11;
71858;PMS5003;59713;50.866;4.324;2024-01-25T01:24:10;20;11;
71858;PMS5003;59713;50.866;4.324;2024-01-25T01:25:10;14;10;
71858;PMS5003;59713;50.866;4.324;2024-01-25T01:26:11;14;10;
71858;PMS5003;59713;50.866;4.324;2024-01-25T01:27:10;14;10;
71858;PMS5003;59713;50.866;4.324;2024-01-25T01:28:10;19;8;
71858;PMS5003;59713;50.866;4.324;2024-01-25T01:29:10;19;8;
71858;PMS5003;59713;50.866;4.324;2024-01-25T01:30:11;19;8;
71858;PMS5003;59713;50.866;4.324;2024-01-25T01:31:10;11;4;
71858;PMS5003;59713;50.866;4.324;2024-01-25T01:32:10;11;4;
71858;PMS5003;59713;50.866;4.324;2024-01-25T01:33:10;11;4;
71858;PMS5003;59713;50.866;4.324;2024-01-25T01:34:10;7;2;
71858;PMS5003;59713;50.866;4.324;2024-01-25T01:35:10;7;2;
71858;PMS5003;59713;50.866;4.324;2024-01-25T01:36:10;7;2;
71858;PMS5003;59713;50.866;4.324;2024-01-25T01:37:10;26;10;
71858;PMS5003;59713;50.866;4.324;2024-01-25T01:38:10;26;10;
71858;PMS5003;59713;50.866;4.324;2024-01-25T01:38:10;26;10;
71858;PMS5003;59713;50.866;4.324;2024-01-25T01:39:10;26;10;
71858;PMS5003;59713;50.866;4.324;2024-01-25T01:40:11;10;7;
71858;PMS5003;59713;50.866;4.324;2024-01-25T01:41:10;10;7;
71858;PMS5003;59713;50.866;4.324;2024-01-25T01:42:10;10;7;
71858;PMS5003;59713;50.866;4.324;2024-01-25T01:43:17;11;7;
71858;PMS5003;59713;50.866;4.324;2024-01-25T01:44:10;11;7;
71858;PMS5003;59713;50.866;4.324;2024-01-25T01:45:11;11;7;
71858;PMS5003;59713;50.866;4.324;2024-01-25T01:46:11;10;7;
71858;PMS5003;59713;50.866;4.324;2024-01-25T01:47:10;10;7;
71858;PMS5003;59713;50.866;4.324;2024-01-25T01:47:10;10;7;
71858;PMS5003;59713;50.866;4.324;2024-01-25T01:48:10;10;7;
71858;PMS5003;59713;50.866;4.324;2024-01-25T01:49:11;20;7;
71858;PMS5003;59713;50.866;4.324;2024-01-25T01:50:10;20;7;
71858;PMS5003;59713;50.866;4.324;2024-01-25T01:51:10;20;7;
71858;PMS5003;59713;50.866;4.324;2024-01-25T01:52:10;19;10;
71858;PMS5003;59713;50.866;4.324;2024-01-25T01:53:12;19;10;
71858;PMS5003;59713;50.866;4.324;2024-01-25T01:54:10;19;10;
71858;PMS5003;59713;50.866;4.324;2024-01-25T01:55:10;17;7;
71858;PMS5003;59713;50.866;4.324;2024-01-25T01:56:10;17;7;
71858;PMS5003;59713;50.866;4.324;2024-01-25T01:56:10;17;7;
71858;PMS5003;59713;50.866;4.324;2024-01-25T01:57:10;17;7;
71858;PMS5003;59713;50.866;4.324;2024-01-25T01:58:10;9;8;
71858;PMS5003;59713;50.866;4.324;2024-01-25T01:59:11;9;8;
71858;PMS5003;59713;50.866;4.324;2024-01-25T02:00:11;9;8;
71858;PMS5003;59713;50.866;4.324;2024-01-25T02:01:10;11;8;
71858;PMS5003;59713;50.866;4.324;2024-01-25T02:02:10;11;8;
71858;PMS5003;59713;50.866;4.324;2024-01-25T02:03:10;11;8;
71858;PMS5003;59713;50.866;4.324;2024-01-25T02:04:10;22;10;
71858;PMS5003;59713;50.866;4.324;2024-01-25T02:05:10;22;10;
71858;PMS5003;59713;50.866;4.324;2024-01-25T02:05:10;22;10;
71858;PMS5003;59713;50.866;4.324;2024-01-25T02:06:10;22;10;
71858;PMS5003;59713;50.866;4.324;2024-01-25T02:07:11;16;9;
71858;PMS5003;59713;50.866;4.324;2024-01-25T02:08:10;16;9;
71858;PMS5003;59713;50.866;4.324;2024-01-25T02:09:10;16;9;
71858;PMS5003;59713;50.866;4.324;2024-01-25T02:10:11;11;4;
71858;PMS5003;59713;50.866;4.324;2024-01-25T02:11:11;11;4;
71858;PMS5003;59713;50.866;4.324;2024-01-25T02:12:10;11;4;
71858;PMS5003;59713;50.866;4.324;2024-01-25T02:13:10;12;5;
71858;PMS5003;59713;50.866;4.324;2024-01-25T02:14:10;12;5;
71858;PMS5003;59713;50.866;4.324;2024-01-25T02:14:10;12;5;
71858;PMS5003;59713;50.866;4.324;2024-01-25T02:15:10;12;5;
71858;PMS5003;59713;50.866;4.324;2024-01-25T02:16:10;12;5;
71858;PMS5003;59713;50.866;4.324;2024-01-25T02:17:10;12;5;
71858;PMS5003;59713;50.866;4.324;2024-01-25T02:18:10;12;5;
71858;PMS5003;59713;50.866;4.324;2024-01-25T02:19:10;12;6;
71858;PMS5003;59713;50.866;4.324;2024-01-25T02:20:11;12;6;
71858;PMS5003;59713;50.866;4.324;2024-01-25T02:21:10;12;6;
71858;PMS5003;59713;50.866;4.324;2024-01-25T02:22:10;12;5;
71858;PMS5003;59713;50.866;4.324;2024-01-25T02:23:10;12;5;
71858;PMS5003;59713;50.866;4.324;2024-01-25T02:23:10;12;5;
71858;PMS5003;59713;50.866;4.324;2024-01-25T02:24:10;12;5;
71858;PMS5003;59713;50.866;4.324;2024-01-25T02:25:10;10;5;
71858;PMS5003;59713;50.866;4.324;2024-01-25T02:26:10;10;5;
71858;PMS5003;59713;50.866;4.324;2024-01-25T02:27:12;10;5;
71858;PMS5003;59713;50.866;4.324;2024-01-25T02:28:10;9;7;
71858;PMS5003;59713;50.866;4.324;2024-01-25T02:29:10;9;7;
71858;PMS5003;59713;50.866;4.324;2024-01-25T02:30:11;9;7;
71858;PMS5003;59713;50.866;4.324;2024-01-25T02:31:10;16;6;
71858;PMS5003;59713;50.866;4.324;2024-01-25T02:32:10;16;6;
71858;PMS5003;59713;50.866;4.324;2024-01-25T02:32:10;16;6;
71858;PMS5003;59713;50.866;4.324;2024-01-25T02:33:12;16;6;
71858;PMS5003;59713;50.866;4.324;2024-01-25T02:34:10;11;8;
71858;PMS5003;59713;50.866;4.324;2024-01-25T02:35:10;11;8;
71858;PMS5003;59713;50.866;4.324;2024-01-25T02:36:10;11;8;
71858;PMS5003;59713;50.866;4.324;2024-01-25T02:37:10;6;6;
71858;PMS5003;59713;50.866;4.324;2024-01-25T02:38:10;6;6;
71858;PMS5003;59713;50.866;4.324;2024-01-25T02:39:12;6;6;
71858;PMS5003;59713;50.866;4.324;2024-01-25T02:40:11;14;8;
71858;PMS5003;59713;50.866;4.324;2024-01-25T02:41:10;14;8;
71858;PMS5003;59713;50.866;4.324;2024-01-25T02:41:10;14;8;
71858;PMS5003;59713;50.866;4.324;2024-01-25T02:42:10;14;8;
71858;PMS5003;59713;50.866;4.324;2024-01-25T02:43:10;10;6;
71858;PMS5003;59713;50.866;4.324;2024-01-25T02:44:11;10;6;
71858;PMS5003;59713;50.866;4.324;2024-01-25T02:45:11;10;6;
71858;PMS5003;59713;50.866;4.324;2024-01-25T02:46:10;17;6;
71858;PMS5003;59713;50.866;4.324;2024-01-25T02:47:11;17;6;
71858;PMS5003;59713;50.866;4.324;2024-01-25T02:48:10;17;6;
71858;PMS5003;59713;50.866;4.324;2024-01-25T02:49:10;10;7;
71858;PMS5003;59713;50.866;4.324;2024-01-25T02:50:11;10;7;
71858;PMS5003;59713;50.866;4.324;2024-01-25T02:50:11;10;7;
71858;PMS5003;59713;50.866;4.324;2024-01-25T02:51:10;10;7;
71858;PMS5003;59713;50.866;4.324;2024-01-25T02:52:10;17;7;
71858;PMS5003;59713;50.866;4.324;2024-01-25T02:53:10;17;7;
71858;PMS5003;59713;50.866;4.324;2024-01-25T02:54:10;17;7;
71858;PMS5003;59713;50.866;4.324;2024-01-25T02:55:10;13;5;
71858;PMS5003;59713;50.866;4.324;2024-01-25T02:56:10;13;5;
71858;PMS5003;59713;50.866;4.324;2024-01-25T02:57:10;13;5;
71858;PMS5003;59713;50.866;4.324;2024-01-25T02:58:10;13;8;
71858;PMS5003;59713;50.866;4.324;2024-01-25T02:59:10;13;8;
71858;PMS5003;59713;50.866;4.324;2024-01-25T02:59:11;13;8;
71858;PMS5003;59713;50.866;4.324;2024-01-25T03:00:11;13;8;
71858;PMS5003;59713;50.866;4.324;2024-01-25T03:01:10;14;7;
71858;PMS5003;59713;50.866;4.324;2024-01-25T03:02:10;14;7;
71858;PMS5003;59713;50.866;4.324;2024-01-25T03:03:10;14;7;
71858;PMS5003;59713;50.866;4.324;2024-01-25T03:04:11;24;8;
71858;PMS5003;59713;50.866;4.324;2024-01-25T03:05:11;24;8;
71858;PMS5003;59713;50.866;4.324;2024-01-25T03:06:10;24;8;
71858;PMS5003;59713;50.866;4.324;2024-01-25T03:07:11;15;7;
71858;PMS5003;59713;50.866;4.324;2024-01-25T03:08:11;15;7;
71858;PMS5003;59713;50.866;4.324;2024-01-25T03:08:11;15;7;
71858;PMS5003;59713;50.866;4.324;2024-01-25T03:09:11;15;7;
71858;PMS5003;59713;50.866;4.324;2024-01-25T03:10:11;10;6;
71858;PMS5003;59713;50.866;4.324;2024-01-25T03:11:11;10;6;
71858;PMS5003;59713;50.866;4.324;2024-01-25T03:12:11;10;6;
71858;PMS5003;59713;50.866;4.324;2024-01-25T03:13:11;15;7;
71858;PMS5003;59713;50.866;4.324;2024-01-25T03:14:11;15;7;
71858;PMS5003;59713;50.866;4.324;2024-01-25T03:15:11;15;7;
71858;PMS5003;59713;50.866;4.324;2024-01-25T03:16:11;15;9;
71858;PMS5003;59713;50.866;4.324;2024-01-25T03:17:11;15;9;
71858;PMS5003;59713;50.866;4.324;2024-01-25T03:17:11;15;9;
71858;PMS5003;59713;50.866;4.324;2024-01-25T03:18:11;15;9;
71858;PMS5003;59713;50.866;4.324;2024-01-25T03:19:11;12;7;
71858;PMS5003;59713;50.866;4.324;2024-01-25T03:20:11;12;7;
71858;PMS5003;59713;50.866;4.324;2024-01-25T03:21:12;12;7;
71858;PMS5003;59713;50.866;4.324;2024-01-25T03:22:11;16;6;
71858;PMS5003;59713;50.866;4.324;2024-01-25T03:23:11;16;6;
71858;PMS5003;59713;50.866;4.324;2024-01-25T03:24:11;16;6;
71858;PMS5003;59713;50.866;4.324;2024-01-25T03:25:11;8;5;
71858;PMS5003;59713;50.866;4.324;2024-01-25T03:26:11;8;5;
71858;PMS5003;59713;50.866;4.324;2024-01-25T03:27:11;8;5;
71858;PMS5003;59713;50.866;4.324;2024-01-25T03:27:11;8;5;
71858;PMS5003;59713;50.866;4.324;2024-01-25T03:28:11;18;7;
71858;PMS5003;59713;50.866;4.324;2024-01-25T03:29:11;18;7;
71858;PMS5003;59713;50.866;4.324;2024-01-25T03:30:11;18;7;
71858;PMS5003;59713;50.866;4.324;2024-01-25T03:31:11;15;6;
71858;PMS5003;59713;50.866;4.324;2024-01-25T03:32:11;15;6;
71858;PMS5003;59713;50.866;4.324;2024-01-25T03:33:11;15;6;
71858;PMS5003;59713;50.866;4.324;2024-01-25T03:34:11;5;5;
71858;PMS5003;59713;50.866;4.324;2024-01-25T03:35:11;5;5;
71858;PMS5003;59713;50.866;4.324;2024-01-25T03:36:13;5;5;
71858;PMS5003;59713;50.866;4.324;2024-01-25T03:37:11;9;6;
71858;PMS5003;59713;50.866;4.324;2024-01-25T03:38:11;9;6;
71858;PMS5003;59713;50.866;4.324;2024-01-25T03:39:11;9;6;
71858;PMS5003;59713;50.866;4.324;2024-01-25T03:40:11;16;9;
71858;PMS5003;59713;50.866;4.324;2024-01-25T03:41:11;16;9;
71858;PMS5003;59713;50.866;4.324;2024-01-25T03:42:11;16;9;
71858;PMS5003;59713;50.866;4.324;2024-01-25T03:43:11;5;5;
71858;PMS5003;59713;50.866;4.324;2024-01-25T03:44:11;5;5;
71858;PMS5003;59713;50.866;4.324;2024-01-25T03:45:11;5;5;
71858;PMS5003;59713;50.866;4.324;2024-01-25T03:45:11;5;5;
71858;PMS5003;59713;50.866;4.324;2024-01-25T03:46:11;15;8;
71858;PMS5003;59713;50.866;4.324;2024-01-25T03:47:11;15;8;
71858;PMS5003;59713;50.866;4.324;2024-01-25T03:48:11;15;8;
71858;PMS5003;59713;50.866;4.324;2024-01-25T03:49:11;26;10;
71858;PMS5003;59713;50.866;4.324;2024-01-25T03:50:11;26;10;
71858;PMS5003;59713;50.866;4.324;2024-01-25T03:51:11;26;10;
71858;PMS5003;59713;50.866;4.324;2024-01-25T03:52:11;13;7;
71858;PMS5003;59713;50.866;4.324;2024-01-25T03:53:11;13;7;
71858;PMS5003;59713;50.866;4.324;2024-01-25T03:54:11;13;7;
71858;PMS5003;59713;50.866;4.324;2024-01-25T03:54:11;13;7;
71858;PMS5003;59713;50.866;4.324;2024-01-25T03:55:11;20;8;
71858;PMS5003;59713;50.866;4.324;2024-01-25T03:56:11;20;8;
71858;PMS5003;59713;50.866;4.324;2024-01-25T03:57:11;20;8;
71858;PMS5003;59713;50.866;4.324;2024-01-25T03:58:11;10;7;
71858;PMS5003;59713;50.866;4.324;2024-01-25T03:59:11;10;7;
71858;PMS5003;59713;50.866;4.324;2024-01-25T04:00:11;10;7;
71858;PMS5003;59713;50.866;4.324;2024-01-25T04:01:11;15;8;
71858;PMS5003;59713;50.866;4.324;2024-01-25T04:02:13;15;8;
71858;PMS5003;59713;50.866;4.324;2024-01-25T04:03:11;15;8;
71858;PMS5003;59713;50.866;4.324;2024-01-25T04:03:11;15;8;
71858;PMS5003;59713;50.866;4.324;2024-01-25T04:04:11;9;3;
71858;PMS5003;59713;50.866;4.324;2024-01-25T04:05:11;9;3;
71858;PMS5003;59713;50.866;4.324;2024-01-25T04:06:11;9;3;
71858;PMS5003;59713;50.866;4.324;2024-01-25T04:07:11;16;8;
71858;PMS5003;59713;50.866;4.324;2024-01-25T04:08:11;16;8;
71858;PMS5003;59713;50.866;4.324;2024-01-25T04:09:11;16;8;
71858;PMS5003;59713;50.866;4.324;2024-01-25T04:10:11;16;7;
71858;PMS5003;59713;50.866;4.324;2024-01-25T04:11:11;16;7;
71858;PMS5003;59713;50.866;4.324;2024-01-25T04:12:11;16;7;
71858;PMS5003;59713;50.866;4.324;2024-01-25T04:13:11;10;3;
71858;PMS5003;59713;50.866;4.324;2024-01-25T04:13:11;10;3;
71858;PMS5003;59713;50.866;4.324;2024-01-25T04:14:11;10;3;
71858;PMS5003;59713;50.866;4.324;2024-01-25T04:15:11;10;3;
71858;PMS5003;59713;50.866;4.324;2024-01-25T04:16:13;18;10;
71858;PMS5003;59713;50.866;4.324;2024-01-25T04:17:11;18;10;
71858;PMS5003;59713;50.866;4.324;2024-01-25T04:18:11;18;10;
71858;PMS5003;59713;50.866;4.324;2024-01-25T04:19:11;23;11;
71858;PMS5003;59713;50.866;4.324;2024-01-25T04:20:11;23;11;
71858;PMS5003;59713;50.866;4.324;2024-01-25T04:21:11;23;11;
71858;PMS5003;59713;50.866;4.324;2024-01-25T04:22:11;16;9;
71858;PMS5003;59713;50.866;4.324;2024-01-25T04:22:11;16;9;
71858;PMS5003;59713;50.866;4.324;2024-01-25T04:23:11;16;9;
71858;PMS5003;59713;50.866;4.324;2024-01-25T04:24:11;16;9;
71858;PMS5003;59713;50.866;4.324;2024-01-25T04:25:11;13;8;
71858;PMS5003;59713;50.866;4.324;2024-01-25T04:26:11;13;8;
71858;PMS5003;59713;50.866;4.324;2024-01-25T04:27:11;13;8;
71858;PMS5003;59713;50.866;4.324;2024-01-25T04:28:11;21;8;
71858;PMS5003;59713;50.866;4.324;2024-01-25T04:29:11;21;8;
71858;PMS5003;59713;50.866;4.324;2024-01-25T04:30:11;21;8;
71858;PMS5003;59713;50.866;4.324;2024-01-25T04:31:11;13;10;
71858;PMS5003;59713;50.866;4.324;2024-01-25T04:32:11;13;10;
71858;PMS5003;59713;50.866;4.324;2024-01-25T04:32:11;13;10;
71858;PMS5003;59713;50.866;4.324;2024-01-25T04:33:11;13;10;
71858;PMS5003;59713;50.866;4.324;2024-01-25T04:34:12;17;8;
71858;PMS5003;59713;50.866;4.324;2024-01-25T04:35:11;17;8;
71858;PMS5003;59713;50.866;4.324;2024-01-25T04:36:11;17;8;
71858;PMS5003;59713;50.866;4.324;2024-01-25T04:37:11;17;10;
71858;PMS5003;59713;50.866;4.324;2024-01-25T04:38:11;17;10;
71858;PMS5003;59713;50.866;4.324;2024-01-25T04:39:11;17;10;
71858;PMS5003;59713;50.866;4.324;2024-01-25T04:40:11;15;8;
71858;PMS5003;59713;50.866;4.324;2024-01-25T04:41:11;15;8;
71858;PMS5003;59713;50.866;4.324;2024-01-25T04:41:11;15;8;
71858;PMS5003;59713;50.866;4.324;2024-01-25T04:42:11;15;8;
71858;PMS5003;59713;50.866;4.324;2024-01-25T04:43:11;12;6;
71858;PMS5003;59713;50.866;4.324;2024-01-25T04:44:11;12;6;
71858;PMS5003;59713;50.866;4.324;2024-01-25T04:45:11;12;6;
71858;PMS5003;59713;50.866;4.324;2024-01-25T04:46:11;19;13;
71858;PMS5003;59713;50.866;4.324;2024-01-25T04:47:12;19;13;
71858;PMS5003;59713;50.866;4.324;2024-01-25T04:48:11;19;13;
71858;PMS5003;59713;50.866;4.324;2024-01-25T04:49:11;19;11;
71858;PMS5003;59713;50.866;4.324;2024-01-25T04:50:11;19;11;
71858;PMS5003;59713;50.866;4.324;2024-01-25T04:50:11;19;11;
71858;PMS5003;59713;50.866;4.324;2024-01-25T04:51:14;19;11;
71858;PMS5003;59713;50.866;4.324;2024-01-25T04:52:11;12;9;
71858;PMS5003;59713;50.866;4.324;2024-01-25T04:53:11;12;9;
71858;PMS5003;59713;50.866;4.324;2024-01-25T04:54:11;12;9;
71858;PMS5003;59713;50.866;4.324;2024-01-25T04:55:11;16;9;
71858;PMS5003;59713;50.866;4.324;2024-01-25T04:56:11;16;9;
71858;PMS5003;59713;50.866;4.324;2024-01-25T04:57:11;16;9;
71858;PMS5003;59713;50.866;4.324;2024-01-25T04:58:11;16;10;
71858;PMS5003;59713;50.866;4.324;2024-01-25T04:59:11;16;10;
71858;PMS5003;59713;50.866;4.324;2024-01-25T05:00:11;16;10;
71858;PMS5003;59713;50.866;4.324;2024-01-25T05:00:11;16;10;
71858;PMS5003;59713;50.866;4.324;2024-01-25T05:01:11;20;11;
71858;PMS5003;59713;50.866;4.324;2024-01-25T05:02:11;20;11;
71858;PMS5003;59713;50.866;4.324;2024-01-25T05:03:11;20;11;
71858;PMS5003;59713;50.866;4.324;2024-01-25T05:04:11;14;9;
71858;PMS5003;59713;50.866;4.324;2024-01-25T05:05:11;14;9;
71858;PMS5003;59713;50.866;4.324;2024-01-25T05:06:11;14;9;
71858;PMS5003;59713;50.866;4.324;2024-01-25T05:07:11;15;8;
71858;PMS5003;59713;50.866;4.324;2024-01-25T05:08:11;15;8;
71858;PMS5003;59713;50.866;4.324;2024-01-25T05:09:11;15;8;
71858;PMS5003;59713;50.866;4.324;2024-01-25T05:09:11;15;8;
71858;PMS5003;59713;50.866;4.324;2024-01-25T05:10:11;18;11;
71858;PMS5003;59713;50.866;4.324;2024-01-25T05:11:11;18;11;
71858;PMS5003;59713;50.866;4.324;2024-01-25T05:12:11;18;11;
71858;PMS5003;59713;50.866;4.324;2024-01-25T05:13:11;13;5;
71858;PMS5003;59713;50.866;4.324;2024-01-25T05:14:11;13;5;
71858;PMS5003;59713;50.866;4.324;2024-01-25T05:15:11;13;5;
71858;PMS5003;59713;50.866;4.324;2024-01-25T05:16:11;11;7;
71858;PMS5003;59713;50.866;4.324;2024-01-25T05:17:11;11;7;
71858;PMS5003;59713;50.866;4.324;2024-01-25T05:18:11;11;7;
71858;PMS5003;59713;50.866;4.324;2024-01-25T05:19:11;14;8;
71858;PMS5003;59713;50.866;4.324;2024-01-25T05:19:11;14;8;
71858;PMS5003;59713;50.866;4.324;2024-01-25T05:20:11;14;8;
71858;PMS5003;59713;50.866;4.324;2024-01-25T05:21:11;14;8;
71858;PMS5003;59713;50.866;4.324;2024-01-25T05:22:11;11;7;
71858;PMS5003;59713;50.866;4.324;2024-01-25T05:23:11;11;7;
71858;PMS5003;59713;50.866;4.324;2024-01-25T05:24:11;11;7;
71858;PMS5003;59713;50.866;4.324;2024-01-25T05:25:11;18;8;
71858;PMS5003;59713;50.866;4.324;2024-01-25T05:26:11;18;8;
71858;PMS5003;59713;50.866;4.324;2024-01-25T05:27:11;18;8;
71858;PMS5003;59713;50.866;4.324;2024-01-25T05:28:11;17;10;
71858;PMS5003;59713;50.866;4.324;2024-01-25T05:28:11;17;10;
71858;PMS5003;59713;50.866;4.324;2024-01-25T05:29:11;17;10;
71858;PMS5003;59713;50.866;4.324;2024-01-25T05:30:11;17;10;
71858;PMS5003;59713;50.866;4.324;2024-01-25T05:31:11;18;9;
71858;PMS5003;59713;50.866;4.324;2024-01-25T05:32:11;18;9;
71858;PMS5003;59713;50.866;4.324;2024-01-25T05:33:11;18;9;
71858;PMS5003;59713;50.866;4.324;2024-01-25T05:34:11;15;9;
71858;PMS5003;59713;50.866;4.324;2024-01-25T05:35:11;15;9;
71858;PMS5003;59713;50.866;4.324;2024-01-25T05:36:11;15;9;
71858;PMS5003;59713;50.866;4.324;2024-01-25T05:37:11;10;5;
71858;PMS5003;59713;50.866;4.324;2024-01-25T05:37:11;10;5;
71858;PMS5003;59713;50.866;4.324;2024-01-25T05:38:11;10;5;
71858;PMS5003;59713;50.866;4.324;2024-01-25T05:39:11;10;5;
71858;PMS5003;59713;50.866;4.324;2024-01-25T05:40:11;13;8;
71858;PMS5003;59713;50.866;4.324;2024-01-25T05:41:11;13;8;
71858;PMS5003;59713;50.866;4.324;2024-01-25T05:42:11;13;8;
71858;PMS5003;59713;50.866;4.324;2024-01-25T05:43:11;15;6;
71858;PMS5003;59713;50.866;4.324;2024-01-25T05:44:11;15;6;
71858;PMS5003;59713;50.866;4.324;2024-01-25T05:45:11;15;6;
71858;PMS5003;59713;50.866;4.324;2024-01-25T05:46:11;12;8;
71858;PMS5003;59713;50.866;4.324;2024-01-25T05:47:12;12;8;
71858;PMS5003;59713;50.866;4.324;2024-01-25T05:47:12;12;8;
71858;PMS5003;59713;50.866;4.324;2024-01-25T05:48:11;12;8;
71858;PMS5003;59713;50.866;4.324;2024-01-25T05:49:11;12;9;
71858;PMS5003;59713;50.866;4.324;2024-01-25T05:50:11;12;9;
71858;PMS5003;59713;50.866;4.324;2024-01-25T05:51:11;12;9;
71858;PMS5003;59713;50.866;4.324;2024-01-25T05:52:11;13;8;
71858;PMS5003;59713;50.866;4.324;2024-01-25T05:53:11;13;8;
71858;PMS5003;59713;50.866;4.324;2024-01-25T05:54:11;13;8;
71858;PMS5003;59713;50.866;4.324;2024-01-25T05:55:11;16;11;
71858;PMS5003;59713;50.866;4.324;2024-01-25T05:56:11;16;11;
71858;PMS5003;59713;50.866;4.324;2024-01-25T05:56:11;16;11;
71858;PMS5003;59713;50.866;4.324;2024-01-25T05:57:11;16;11;
71858;PMS5003;59713;50.866;4.324;2024-01-25T05:58:11;13;11;
71858;PMS5003;59713;50.866;4.324;2024-01-25T05:59:11;13;11;
71858;PMS5003;59713;50.866;4.324;2024-01-25T06:00:12;13;11;
71858;PMS5003;59713;50.866;4.324;2024-01-25T06:01:11;16;8;
71858;PMS5003;59713;50.866;4.324;2024-01-25T06:02:11;16;8;
71858;PMS5003;59713;50.866;4.324;2024-01-25T06:03:11;16;8;
71858;PMS5003;59713;50.866;4.324;2024-01-25T06:04:11;11;6;
71858;PMS5003;59713;50.866;4.324;2024-01-25T06:05:11;11;6;
71858;PMS5003;59713;50.866;4.324;2024-01-25T06:05:11;11;6;
71858;PMS5003;59713;50.866;4.324;2024-01-25T06:06:11;11;6;